Time;durP1;ratioP1;P1;durP2;ratioP2;P2;SDS_P1;SDS_P2;PMS_P1;PMS_P2;Temp;Humidity;BMP_temperature;BMP_pressure;BME280_temperature;BME280_humidity;BME280_pressure;Samples;Min_cycle;Max_cycle;Signal;HPM_P1;HPM_P2
2021/11/05 00:00:19;;;;;;;;;4.25;2.00;;;;;12.16;65.78;101473.56;5059675;28;46280;-64
2021/11/05 00:02:44;;;;;;;;;3.75;2.75;;;;;12.16;65.72;101478.03;5048492;28;45240;-64
2021/11/05 00:05:10;;;;;;;;;3.00;1.00;;;;;12.16;65.82;101476.25;5056474;28;45283;-64
2021/11/05 00:07:35;;;;;;;;;2.25;2.25;;;;;12.18;65.74;101482.44;5059824;28;45452;-64
2021/11/05 00:10:01;;;;;;;;;2.00;2.00;;;;;12.17;65.85;101488.69;5058797;28;46131;-64
2021/11/05 00:12:26;;;;;;;;;3.75;3.50;;;;;12.19;66.06;101485.97;5059794;28;45251;-64
2021/11/05 00:14:52;;;;;;;;;3.00;2.25;;;;;12.17;65.70;101490.50;5060653;28;45315;-64
2021/11/05 00:17:17;;;;;;;;;2.25;2.00;;;;;12.15;66.01;101490.53;5063257;28;45768;-64
2021/11/05 00:19:42;;;;;;;;;4.75;3.25;;;;;12.15;65.98;101493.22;5058287;28;46175;-64
2021/11/05 00:22:08;;;;;;;;;4.00;2.25;;;;;12.16;65.94;101496.75;5045775;28;45399;-64
2021/11/05 00:24:34;;;;;;;;;5.00;2.75;;;;;12.13;65.93;101488.81;5060835;28;45314;-64
2021/11/05 00:26:59;;;;;;;;;4.00;2.25;;;;;12.15;65.24;101490.53;5063027;28;45465;-64
2021/11/05 00:29:24;;;;;;;;;3.00;3.00;;;;;12.16;65.47;101494.09;5063010;28;46480;-63
2021/11/05 00:31:50;;;;;;;;;4.00;3.25;;;;;12.14;65.68;101494.13;5063209;28;45323;-64
2021/11/05 00:34:17;;;;;;;;;2.00;2.00;;;;;12.11;65.50;101491.56;5063069;28;45299;-64
2021/11/05 00:36:44;;;;;;;;;2.00;2.00;;;;;12.12;65.71;101490.63;5062954;28;45448;-64
2021/11/05 00:39:10;;;;;;;;;5.00;3.00;;;;;12.13;65.69;101500.41;5062948;28;46157;-64
2021/11/05 00:41:35;;;;;;;;;2.50;2.00;;;;;12.14;65.63;101501.28;5063234;28;45203;-64
2021/11/05 00:44:01;;;;;;;;;3.00;3.00;;;;;12.05;65.38;101483.69;5063220;28;45434;-64
2021/11/05 00:46:26;;;;;;;;;2.75;2.75;;;;;12.13;65.85;101496.84;5055034;28;45280;-64
2021/11/05 00:48:51;;;;;;;;;4.50;3.00;;;;;12.13;65.87;101503.09;5058917;28;46217;-64
2021/11/05 00:51:17;;;;;;;;;4.75;3.25;;;;;12.12;65.62;101506.66;5063206;28;45281;-64
2021/11/05 00:53:42;;;;;;;;;3.50;2.50;;;;;12.13;65.72;101510.22;5062697;28;45293;-64
2021/11/05 00:56:07;;;;;;;;;4.25;3.00;;;;;12.13;65.61;101516.47;5063008;28;45303;-64
2021/11/05 00:58:33;;;;;;;;;3.00;3.00;;;;;12.03;65.44;101505.13;5062642;28;45244;-64
2021/11/05 01:00:58;;;;;;;;;2.00;2.00;;;;;12.12;65.49;101519.19;5062718;28;45461;-64
2021/11/05 01:03:23;;;;;;;;;2.00;2.00;;;;;12.15;65.57;101519.09;5062716;28;45340;-64
2021/11/05 01:05:49;;;;;;;;;2.00;1.50;;;;;12.16;65.54;101524.41;5062657;28;45318;-64
2021/11/05 01:08:14;;;;;;;;;3.00;2.00;;;;;12.17;65.60;101528.84;5062360;28;45379;-64
2021/11/05 01:10:39;;;;;;;;;6.25;3.00;;;;;12.13;65.22;101524.50;5062624;28;45451;-64
2021/11/05 01:13:06;;;;;;;;;4.00;3.00;;;;;12.17;65.32;101528.84;5062683;28;45832;-64
2021/11/05 01:15:32;;;;;;;;;3.00;2.25;;;;;12.17;65.50;101533.31;5062674;28;45318;-64
2021/11/05 01:17:58;;;;;;;;;3.00;2.00;;;;;12.17;65.47;101541.34;5062159;28;45409;-64
2021/11/05 01:20:24;;;;;;;;;4.00;3.00;;;;;12.14;65.19;101536.06;5062620;28;45154;-64
2021/11/05 01:22:49;;;;;;;;;3.00;2.00;;;;;12.15;65.38;101544.06;5052811;28;45465;-64
2021/11/05 01:25:15;;;;;;;;;4.00;2.00;;;;;12.15;65.52;101546.75;5062259;28;45539;-64
2021/11/05 01:27:46;;;;;;;;;2.25;2.00;;;;;12.14;65.30;101552.13;5062039;28;46155;-64
2021/11/05 01:30:13;;;;;;;;;3.00;3.00;;;;;12.10;65.45;101543.31;5062330;28;45382;-64
2021/11/05 01:32:39;;;;;;;;;5.25;3.00;;;;;12.13;65.40;101548.59;5062391;28;45445;-64
2021/11/05 01:35:08;;;;;;;;;2.75;1.25;;;;;12.15;65.19;101551.22;5062167;28;45303;-64
2021/11/05 01:37:34;;;;;;;;;3.00;3.00;;;;;12.15;65.33;101544.06;5062147;28;46012;-64
2021/11/05 01:39:59;;;;;;;;;2.00;1.75;;;;;12.14;65.16;101555.69;5062238;28;45381;-64
2021/11/05 01:42:25;;;;;;;;;1.75;1.75;;;;;12.11;65.15;101558.47;5062175;28;45322;-64
2021/11/05 01:44:50;;;;;;;;;2.25;1.00;;;;;12.08;65.12;101561.22;5062172;28;45538;-64
2021/11/05 01:47:20;;;;;;;;;1.00;1.00;;;;;12.03;65.10;101553.28;5048652;28;47933;-64
2021/11/05 01:49:48;;;;;;;;;1.50;1.50;;;;;12.07;65.25;101553.22;5061909;28;45302;-64
2021/11/05 01:52:15;;;;;;;;;2.00;2.00;;;;;12.06;65.02;101557.66;5062022;28;45307;-64
2021/11/05 01:54:41;;;;;;;;;1.00;1.00;;;;;12.09;65.42;101559.41;5053354;28;45560;-64
2021/11/05 01:57:07;;;;;;;;;1.00;1.00;;;;;11.99;65.28;101550.72;5061810;28;46423;-64
2021/11/05 01:59:35;;;;;;;;;2.75;2.00;;;;;12.04;65.26;101560.41;5061815;28;45235;-64
2021/11/05 02:02:04;;;;;;;;;1.00;1.00;;;;;12.07;65.12;101559.44;5058857;28;45477;-64
2021/11/05 02:04:29;;;;;;;;;2.00;2.00;;;;;12.07;65.63;101564.78;5061323;28;45521;-64
2021/11/05 02:06:57;;;;;;;;;2.00;2.00;;;;;12.09;65.27;101570.97;5061373;28;46249;-64
2021/11/05 02:09:25;;;;;;;;;4.00;2.75;;;;;12.07;65.04;101570.16;5067775;28;45429;-64
2021/11/05 02:11:52;;;;;;;;;1.25;1.25;;;;;12.06;65.17;101576.41;5061742;28;45223;-64
2021/11/05 02:14:20;;;;;;;;;2.00;2.00;;;;;12.03;64.99;101572.03;5061611;28;45292;-64
2021/11/05 02:16:49;;;;;;;;;2.25;1.00;;;;;12.03;65.07;101574.69;5061157;28;46662;-64
2021/11/05 02:19:17;;;;;;;;;1.75;1.75;;;;;12.01;65.32;101578.31;5061387;28;45544;-64
2021/11/05 02:21:44;;;;;;;;;3.25;3.00;;;;;11.98;65.07;101584.63;5042976;28;45363;-64
2021/11/05 02:24:11;;;;;;;;;2.00;2.00;;;;;11.98;65.14;101583.78;5053863;28;45413;-64
2021/11/05 02:26:37;;;;;;;;;3.00;1.50;;;;;11.98;65.15;101592.66;5060939;28;45475;-64
2021/11/05 02:29:03;;;;;;;;;3.25;2.50;;;;;11.99;65.48;101588.19;5061174;28;45729;-64
2021/11/05 02:31:29;;;;;;;;;2.00;2.00;;;;;11.98;65.25;101587.31;5061206;28;45253;-64
2021/11/05 02:33:54;;;;;;;;;2.00;2.00;;;;;11.98;64.96;101591.81;5061182;28;45295;-64
2021/11/05 02:36:19;;;;;;;;;3.25;3.25;;;;;12.00;64.89;101595.31;5061093;28;46190;-64
2021/11/05 02:38:45;;;;;;;;;3.25;3.00;;;;;11.98;65.21;101594.47;5060529;28;45283;-64
2021/11/05 02:41:10;;;;;;;;;2.50;1.75;;;;;11.98;65.29;101595.34;5061306;28;45223;-64
2021/11/05 02:43:36;;;;;;;;;3.75;2.25;;;;;11.98;65.13;101607.84;5060898;28;45476;-64
2021/11/05 02:46:01;;;;;;;;;3.25;2.00;;;;;11.97;65.28;101606.09;5060754;28;46085;-64
2021/11/05 02:48:27;;;;;;;;;2.00;2.00;;;;;11.96;64.97;101607.88;5060592;28;45221;-64
2021/11/05 02:50:53;;;;;;;;;5.00;2.75;;;;;11.97;65.34;101606.94;5060741;28;45383;-64
2021/11/05 02:53:19;;;;;;;;;6.50;4.00;;;;;11.97;65.21;101600.72;5060912;28;45391;-64
2021/11/05 02:55:45;;;;;;;;;3.00;3.00;;;;;11.94;65.43;101601.66;5060991;28;46269;-64
2021/11/05 02:58:10;;;;;;;;;4.00;3.00;;;;;11.96;64.98;101607.00;5060735;28;45267;-64
2021/11/05 03:00:35;;;;;;;;;2.75;2.75;;;;;11.92;65.11;101608.84;5061083;28;45596;-64
2021/11/05 03:03:01;;;;;;;;;5.00;2.50;;;;;11.95;65.15;101615.94;5060734;28;45398;-64
2021/11/05 03:05:27;;;;;;;;;2.00;2.00;;;;;11.95;64.97;101623.97;5060681;28;46094;-64
2021/11/05 03:07:52;;;;;;;;;3.00;1.25;;;;;11.94;65.19;101622.22;5060620;28;45252;-64
2021/11/05 03:10:18;;;;;;;;;3.25;3.00;;;;;11.95;65.09;101622.16;5060481;28;45410;-64
2021/11/05 03:12:45;;;;;;;;;2.00;2.00;;;;;11.96;64.92;101625.72;5060660;28;45297;-64
2021/11/05 03:15:11;;;;;;;;;1.75;1.75;;;;;11.94;65.18;101625.75;5060602;28;46256;-64
2021/11/05 03:17:37;;;;;;;;;3.00;2.75;;;;;11.97;65.06;101628.34;5060402;28;45297;-64
2021/11/05 03:20:10;;;;;;;;;2.50;2.00;;;;;11.97;65.12;101633.72;5060720;28;45448;-64
2021/11/05 03:22:35;;;;;;;;;2.25;2.25;;;;;11.98;65.03;101635.47;5047702;28;45229;-64
2021/11/05 03:25:00;;;;;;;;;3.75;2.25;;;;;11.99;64.79;101637.22;5059757;28;45549;-64
2021/11/05 03:27:26;;;;;;;;;2.50;2.50;;;;;11.99;64.96;101641.69;5060501;28;45365;-64
2021/11/05 03:29:51;;;;;;;;;2.75;2.75;;;;;11.95;64.77;101637.34;5056683;28;45937;-64
2021/11/05 03:32:17;;;;;;;;;2.00;1.00;;;;;11.96;64.78;101645.34;5060513;28;45446;-64
2021/11/05 03:34:43;;;;;;;;;2.00;2.00;;;;;11.92;64.92;101642.78;5060166;28;46063;-64
2021/11/05 03:37:08;;;;;;;;;2.25;2.25;;;;;11.91;64.83;101647.25;5060432;28;45247;-64
2021/11/05 03:39:34;;;;;;;;;3.25;1.75;;;;;11.94;64.86;101648.97;5060496;28;45334;-64
2021/11/05 03:42:00;;;;;;;;;1.50;1.50;;;;;11.93;64.80;101649.88;5060313;28;45428;-64
2021/11/05 03:44:26;;;;;;;;;3.75;2.00;;;;;11.91;64.60;101652.59;5060168;28;46116;-64
2021/11/05 03:46:51;;;;;;;;;1.00;1.00;;;;;11.91;64.95;101657.97;5060039;28;45380;-64
2021/11/05 03:49:17;;;;;;;;;3.00;2.00;;;;;11.91;64.75;101663.31;5059510;28;45472;-64
2021/11/05 03:51:42;;;;;;;;;1.50;1.00;;;;;11.89;64.65;101664.22;5060229;28;45501;-64
2021/11/05 03:54:08;;;;;;;;;2.75;2.75;;;;;11.90;64.77;101674.88;5060085;28;45379;-64
2021/11/05 03:56:34;;;;;;;;;4.75;2.00;;;;;11.91;64.44;101676.69;5060082;28;45219;-64
2021/11/05 03:59:00;;;;;;;;;2.00;2.00;;;;;11.92;64.95;101682.91;5060102;28;45258;-64
2021/11/05 04:01:25;;;;;;;;;2.50;1.50;;;;;11.91;64.69;101673.06;5059809;28;45220;-64
2021/11/05 04:03:51;;;;;;;;;2.00;2.00;;;;;11.91;64.55;101679.34;5059455;28;46023;-64
2021/11/05 04:06:18;;;;;;;;;2.75;1.00;;;;;11.91;64.41;101682.03;5059932;28;45433;-64
2021/11/05 04:08:44;;;;;;;;;2.00;2.00;;;;;11.90;64.64;101690.06;5060039;28;45256;-64
2021/11/05 04:11:10;;;;;;;;;3.50;2.50;;;;;11.91;64.78;101698.09;5059822;28;45380;-64
2021/11/05 04:13:36;;;;;;;;;2.50;2.00;;;;;11.91;64.40;101707.84;5046623;28;46273;-64
2021/11/05 04:16:02;;;;;;;;;1.00;1.00;;;;;11.88;64.36;101706.16;5059675;28;45314;-64
2021/11/05 04:18:27;;;;;;;;;1.00;1.00;;;;;11.92;64.31;101706.97;5059679;28;45220;-64
2021/11/05 04:20:52;;;;;;;;;3.75;3.00;;;;;11.92;64.54;101717.69;5059657;28;45481;-64
2021/11/05 04:23:18;;;;;;;;;3.50;2.75;;;;;11.92;64.49;101720.38;5046001;28;46093;-64
2021/11/05 04:25:48;;;;;;;;;8.75;3.50;;;;;11.92;64.41;101721.22;5059053;28;45177;-64
2021/11/05 04:28:14;;;;;;;;;5.50;2.00;;;;;11.90;64.45;101720.34;5059450;28;45509;-64
2021/11/05 04:30:40;;;;;;;;;1.25;1.25;;;;;11.92;64.19;101731.06;5059614;28;45338;-64
2021/11/05 04:33:06;;;;;;;;;2.00;1.50;;;;;11.91;64.75;101738.22;5059488;28;46059;-64
2021/11/05 04:35:32;;;;;;;;;2.75;1.00;;;;;11.92;64.67;101733.75;5059362;28;45453;-64
2021/11/05 04:37:57;;;;;;;;;3.00;2.00;;;;;11.91;64.73;101740.91;5059711;28;45235;-64
2021/11/05 04:40:23;;;;;;;;;3.00;2.00;;;;;11.90;64.51;101739.09;5059612;28;45440;-64
2021/11/05 04:42:49;;;;;;;;;1.00;1.00;;;;;11.94;64.30;101754.19;5059433;28;46149;-64
2021/11/05 04:45:14;;;;;;;;;1.50;1.50;;;;;11.94;63.84;101753.31;5058170;28;45224;-64
2021/11/05 04:47:39;;;;;;;;;1.50;1.50;;;;;11.92;64.26;101757.81;5058667;28;45719;-64
2021/11/05 04:50:06;;;;;;;;;3.75;2.00;;;;;11.90;64.43;101762.31;5058979;28;45424;-64
2021/11/05 04:52:31;;;;;;;;;4.00;1.25;;;;;11.89;64.09;101765.88;5059245;28;46126;-64
2021/11/05 04:54:57;;;;;;;;;3.00;1.75;;;;;11.91;63.99;101759.63;5059421;28;45376;-64
2021/11/05 04:57:22;;;;;;;;;1.25;1.00;;;;;11.87;64.04;101768.59;5059543;28;45307;-64
2021/11/05 04:59:48;;;;;;;;;1.00;1.00;;;;;11.87;64.21;101761.44;5059445;28;45306;-64
2021/11/05 05:02:13;;;;;;;;;4.50;3.00;;;;;11.90;64.42;101775.69;5061570;28;45355;-64
2021/11/05 05:04:39;;;;;;;;;2.75;2.75;;;;;11.90;64.04;101773.00;5062469;28;45428;-64
2021/11/05 05:07:04;;;;;;;;;2.25;1.00;;;;;11.91;64.14;101775.69;5062860;28;45319;-64
2021/11/05 05:09:30;;;;;;;;;4.50;2.00;;;;;11.92;64.16;101788.13;5062542;28;45629;-64
2021/11/05 05:11:55;;;;;;;;;1.50;1.50;;;;;11.92;64.10;101789.94;5061917;28;46462;-64
2021/11/05 05:14:20;;;;;;;;;4.25;2.00;;;;;11.91;64.10;101788.13;5060402;28;45493;-64
2021/11/05 05:16:46;;;;;;;;;1.50;1.50;;;;;11.91;64.07;101793.47;5062215;28;45242;-64
2021/11/05 05:19:11;;;;;;;;;2.75;1.75;;;;;11.91;63.82;101794.41;5060776;28;45469;-64
2021/11/05 05:21:37;;;;;;;;;2.75;1.50;;;;;11.86;63.76;101791.78;5062058;28;45411;-64
2021/11/05 05:24:02;;;;;;;;;3.25;1.00;;;;;11.86;64.04;101799.81;5061996;28;45355;-64
2021/11/05 05:26:28;;;;;;;;;2.00;2.00;;;;;11.85;63.78;101792.69;5062044;28;45234;-64
2021/11/05 05:28:53;;;;;;;;;1.75;1.00;;;;;11.84;63.57;101800.75;5061727;28;45389;-64
2021/11/05 05:31:19;;;;;;;;;0.25;0.25;;;;;11.82;63.45;101800.78;5061273;28;45458;-64
2021/11/05 05:33:44;;;;;;;;;0.75;0.75;;;;;11.82;63.66;101810.59;5061421;28;45211;-64
2021/11/05 05:36:10;;;;;;;;;2.75;1.00;;;;;11.79;63.80;101803.50;5061384;28;45323;-64
2021/11/05 05:38:36;;;;;;;;;2.75;1.00;;;;;11.81;63.43;101807.06;5062064;28;45424;-64
2021/11/05 05:41:03;;;;;;;;;4.75;2.00;;;;;11.82;63.82;101813.28;5061689;28;45247;-64
2021/11/05 05:43:28;;;;;;;;;2.50;1.75;;;;;11.78;63.93;101815.13;5062004;28;45342;-64
2021/11/05 05:45:54;;;;;;;;;3.00;2.00;;;;;11.78;64.10;101819.63;5062156;28;45271;-64
2021/11/05 05:48:20;;;;;;;;;1.00;1.00;;;;;11.76;63.86;101816.06;5061339;28;45513;-64
2021/11/05 05:50:46;;;;;;;;;1.00;1.00;;;;;11.80;64.01;101823.13;5060940;28;45300;-64
2021/11/05 05:53:11;;;;;;;;;2.75;1.00;;;;;11.81;63.71;101825.78;5061775;28;45244;-64
2021/11/05 05:55:39;;;;;;;;;2.25;0.50;;;;;11.81;63.50;101831.13;5062183;28;45377;-64
2021/11/05 05:58:06;;;;;;;;;2.25;2.00;;;;;11.81;63.52;101838.25;5061763;28;45214;-64
2021/11/05 06:00:32;;;;;;;;;1.25;1.00;;;;;11.78;64.10;101827.66;5061741;28;47277;-64
2021/11/05 06:02:57;;;;;;;;;3.25;2.00;;;;;11.72;63.82;101828.63;5061126;28;45449;-64
2021/11/05 06:05:22;;;;;;;;;1.50;1.50;;;;;11.80;63.61;101845.41;5061793;28;45833;-64
2021/11/05 06:07:48;;;;;;;;;2.50;1.00;;;;;11.80;63.75;101841.88;5061673;28;45321;-64
2021/11/05 06:10:13;;;;;;;;;1.00;1.00;;;;;11.81;63.71;101848.97;5061519;28;45950;-64
2021/11/05 06:12:39;;;;;;;;;2.25;1.75;;;;;11.80;63.82;101845.41;5059474;28;45452;-64
2021/11/05 06:15:04;;;;;;;;;2.25;1.00;;;;;11.79;63.81;101848.09;5060365;28;45314;-64
2021/11/05 06:17:30;;;;;;;;;3.00;1.50;;;;;11.81;63.90;101856.97;5061008;28;45389;-64
2021/11/05 06:19:56;;;;;;;;;2.00;1.00;;;;;11.79;63.49;101865.03;5060782;28;46269;-64
2021/11/05 06:22:21;;;;;;;;;1.00;1.00;;;;;11.81;63.68;101868.59;5061397;28;45361;-64
2021/11/05 06:24:47;;;;;;;;;1.75;1.75;;;;;11.79;63.61;101861.50;5060975;28;45323;-64
2021/11/05 06:27:12;;;;;;;;;1.00;1.00;;;;;11.81;63.33;101865.91;5061045;28;45271;-64
2021/11/05 06:29:38;;;;;;;;;4.00;1.00;;;;;11.84;63.47;101872.97;5061196;28;45327;-64
2021/11/05 06:32:04;;;;;;;;;0.25;0.25;;;;;11.79;63.26;101870.38;5060327;28;45373;-64
2021/11/05 06:34:30;;;;;;;;;1.75;1.00;;;;;11.81;63.69;101876.63;5060559;28;45366;-64
2021/11/05 06:36:55;;;;;;;;;2.00;2.00;;;;;11.82;63.66;101881.03;5060291;28;45429;-65
2021/11/05 06:39:21;;;;;;;;;0.50;0.50;;;;;11.82;63.44;101891.72;5060872;28;46552;-64
2021/11/05 06:41:47;;;;;;;;;6.25;1.75;;;;;11.73;63.25;101886.56;5060737;28;45394;-68
2021/11/05 06:44:13;;;;;;;;;0.50;0.50;;;;;11.82;63.70;101894.41;5058459;28;45401;-68
2021/11/05 06:46:39;;;;;;;;;3.00;2.00;;;;;11.81;63.96;101897.09;5060633;28;45476;-67
2021/11/05 06:49:05;;;;;;;;;1.00;1.00;;;;;11.79;63.51;101896.25;5060280;28;45503;-67
2021/11/05 06:51:30;;;;;;;;;2.50;1.00;;;;;11.84;63.63;101915.78;5051969;28;45826;-67
2021/11/05 06:53:56;;;;;;;;;1.00;1.00;;;;;11.78;63.34;101911.44;5053491;28;45443;-67
2021/11/05 06:56:21;;;;;;;;;1.75;1.75;;;;;11.80;63.46;101922.13;5060345;28;45410;-67
2021/11/05 06:58:47;;;;;;;;;2.50;1.00;;;;;11.80;62.98;101923.00;5074431;28;48293;-63
2021/11/05 07:01:13;;;;;;;;;1.75;0.75;;;;;11.75;63.31;101922.19;5060103;28;45347;-64
2021/11/05 07:03:38;;;;;;;;;1.25;1.25;;;;;11.78;63.59;101932.84;5059209;28;45283;-65
2021/11/05 07:06:04;;;;;;;;;3.75;2.00;;;;;11.78;63.38;101932.84;5060926;28;45252;-64
2021/11/05 07:08:30;;;;;;;;;1.50;1.25;;;;;11.77;63.33;101930.19;5058898;28;46394;-64
2021/11/05 07:10:56;;;;;;;;;1.00;1.00;;;;;11.79;63.25;101939.94;5054547;28;45560;-64
2021/11/05 07:13:21;;;;;;;;;3.00;2.00;;;;;11.80;63.12;101941.72;5058257;28;47237;-64
2021/11/05 07:15:47;;;;;;;;;1.00;1.00;;;;;11.81;62.95;101939.91;5060147;28;45295;-65
2021/11/05 07:18:13;;;;;;;;;2.00;1.50;;;;;11.86;62.65;101955.00;5059149;28;46260;-64
2021/11/05 07:20:39;;;;;;;;;2.00;2.00;;;;;11.85;63.08;101960.38;5055344;28;45416;-64
2021/11/05 07:23:05;;;;;;;;;3.00;1.00;;;;;11.84;62.83;101963.94;5060201;28;45290;-65
2021/11/05 07:25:31;;;;;;;;;1.00;1.00;;;;;11.83;62.83;101964.88;5060046;28;45333;-63
2021/11/05 07:27:57;;;;;;;;;1.50;1.00;;;;;11.86;63.06;101968.38;5059744;28;45974;-63
2021/11/05 07:30:22;;;;;;;;;2.00;1.00;;;;;11.89;63.00;101975.44;5060244;28;45453;-64
2021/11/05 07:32:50;;;;;;;;;2.00;1.00;;;;;11.88;63.06;101981.72;5059734;28;45284;-64
2021/11/05 07:35:18;;;;;;;;;3.50;2.75;;;;;11.87;62.92;101985.28;5047722;28;45196;-65
2021/11/05 07:37:43;;;;;;;;;1.00;1.00;;;;;11.86;63.10;101994.22;5058790;28;45276;-64
2021/11/05 07:40:10;;;;;;;;;1.00;1.00;;;;;11.84;62.90;101996.94;5058571;28;45667;-64
2021/11/05 07:42:40;;;;;;;;;1.25;1.25;;;;;11.80;62.77;101997.03;5054923;28;45457;-65
2021/11/05 07:45:09;;;;;;;;;2.50;2.00;;;;;11.79;62.82;102001.47;5050778;28;45248;-64
2021/11/05 07:47:35;;;;;;;;;2.25;2.25;;;;;11.80;62.54;102011.28;5057747;28;45576;-65
2021/11/05 07:50:01;;;;;;;;;2.50;2.50;;;;;11.82;63.03;102013.91;5058119;28;46670;-65
2021/11/05 07:52:26;;;;;;;;;3.00;2.00;;;;;11.82;62.68;102011.25;5058106;28;45545;-65
2021/11/05 07:54:52;;;;;;;;;1.25;1.25;;;;;11.77;62.62;101999.75;5057734;28;45553;-65
2021/11/05 07:57:17;;;;;;;;;2.50;1.50;;;;;11.81;62.96;102010.38;5045814;28;45418;-65
2021/11/05 07:59:42;;;;;;;;;4.00;2.00;;;;;11.80;62.44;102016.63;5057910;28;45461;-64
2021/11/05 08:02:08;;;;;;;;;3.00;2.25;;;;;11.83;62.84;102032.63;5058510;28;46002;-65
2021/11/05 08:04:34;;;;;;;;;4.75;3.00;;;;;11.83;62.60;102042.47;5054174;28;45525;-65
2021/11/05 08:07:00;;;;;;;;;2.00;2.00;;;;;11.83;62.74;102039.78;5058324;28;46263;-65
2021/11/05 08:09:25;;;;;;;;;1.25;1.25;;;;;11.80;62.70;102032.69;5057380;28;45823;-64
2021/11/05 08:11:51;;;;;;;;;3.00;3.00;;;;;11.82;62.74;102046.03;5058381;28;45647;-65
2021/11/05 08:14:16;;;;;;;;;0.50;0.00;;;;;11.84;62.68;102049.56;5058207;28;45323;-65
2021/11/05 08:16:42;;;;;;;;;1.00;1.00;;;;;11.87;62.74;102060.22;5058135;28;46026;-65
2021/11/05 08:19:07;;;;;;;;;2.50;1.50;;;;;11.88;62.68;102056.63;5057804;28;45501;-65
2021/11/05 08:21:33;;;;;;;;;3.25;2.00;;;;;11.83;62.18;102050.47;5054483;28;45578;-62
2021/11/05 08:23:59;;;;;;;;;3.00;2.00;;;;;11.87;62.97;102070.91;5054325;28;46089;-64
2021/11/05 08:26:26;;;;;;;;;2.75;2.75;;;;;11.87;62.81;102069.09;5052616;28;46438;-64
2021/11/05 08:28:51;;;;;;;;;4.25;1.50;;;;;11.84;62.51;102071.88;5059401;28;45603;-65
2021/11/05 08:31:17;;;;;;;;;2.75;2.75;;;;;11.83;62.98;102063.84;5058517;28;45492;-65
2021/11/05 08:33:43;;;;;;;;;1.50;1.50;;;;;11.85;62.76;102062.03;5057270;28;45506;-65
2021/11/05 08:36:11;;;;;;;;;3.00;3.00;;;;;11.90;62.79;102086.03;5059870;28;46187;-65
2021/11/05 08:38:37;;;;;;;;;2.50;2.25;;;;;11.92;62.84;102076.22;5062600;28;45347;-65
2021/11/05 08:41:03;;;;;;;;;5.00;2.50;;;;;11.91;62.90;102078.03;5061359;28;45342;-65
2021/11/05 08:43:31;;;;;;;;;2.00;2.00;;;;;11.93;62.53;102086.00;5061988;28;45496;-65
2021/11/05 08:46:02;;;;;;;;;3.00;2.00;;;;;11.94;62.87;102083.31;5062129;28;46280;-65
2021/11/05 08:48:29;;;;;;;;;2.25;2.00;;;;;11.93;62.38;102091.34;5061680;28;45457;-65
2021/11/05 08:50:57;;;;;;;;;6.00;3.00;;;;;11.96;62.70;102089.53;5061911;28;45364;-65
2021/11/05 08:53:23;;;;;;;;;3.75;3.00;;;;;11.99;62.51;102096.63;5061405;28;45451;-62
2021/11/05 08:55:49;;;;;;;;;3.00;3.00;;;;;12.00;62.35;102104.63;5051421;28;46439;-65
2021/11/05 08:58:15;;;;;;;;;3.25;3.00;;;;;11.96;62.94;102104.69;5059271;28;45378;-68
2021/11/05 09:00:40;;;;;;;;;4.75;3.00;;;;;11.98;62.50;102110.91;5061787;28;45445;-70
2021/11/05 09:03:06;;;;;;;;;3.75;2.00;;;;;12.01;62.22;102124.22;5061267;28;45452;-72
2021/11/05 09:05:34;;;;;;;;;3.50;2.75;;;;;11.96;62.32;102105.59;5061884;28;47110;-70
2021/11/05 09:08:00;;;;;;;;;1.75;1.25;;;;;11.96;62.48;102115.38;5061851;28;45417;-69
2021/11/05 09:10:25;;;;;;;;;2.75;2.50;;;;;12.01;62.30;102121.56;5053055;28;45712;-71
2021/11/05 09:12:51;;;;;;;;;3.00;3.00;;;;;12.05;62.60;102124.16;5058860;28;45464;-74
2021/11/05 09:15:21;;;;;;;;;2.00;2.00;;;;;12.07;62.57;102126.81;5061998;28;45397;-72
2021/11/05 09:17:47;;;;;;;;;2.25;2.00;;;;;12.05;62.45;102120.59;5061533;28;45659;-73
2021/11/05 09:20:14;;;;;;;;;4.50;1.75;;;;;12.13;62.58;102134.75;5060579;28;45334;-72
2021/11/05 09:22:40;;;;;;;;;3.00;3.00;;;;;12.15;62.71;102140.94;5061186;28;45393;-73
2021/11/05 09:25:06;;;;;;;;;5.00;3.00;;;;;12.15;62.51;102145.44;5061568;28;46842;-73
2021/11/05 09:27:33;;;;;;;;;3.75;2.00;;;;;12.15;62.28;102151.66;5048210;28;45523;-71
2021/11/05 09:29:58;;;;;;;;;4.00;3.00;;;;;12.13;62.29;102148.13;5061870;28;45382;-71
2021/11/05 09:32:24;;;;;;;;;5.25;3.00;;;;;12.13;62.22;102147.22;5060850;28;45447;-71
2021/11/05 09:34:51;;;;;;;;;3.75;3.25;;;;;12.16;62.53;102152.53;5057931;28;46018;-71
2021/11/05 09:37:16;;;;;;;;;2.25;2.00;;;;;12.15;62.30;102151.66;5058431;28;45255;-70
2021/11/05 09:39:42;;;;;;;;;6.50;4.00;;;;;12.17;62.59;102152.50;5061809;28;45290;-69
2021/11/05 09:42:08;;;;;;;;;3.00;3.00;;;;;12.21;62.58;102158.69;5059592;28;45417;-70
2021/11/05 09:44:34;;;;;;;;;1.00;1.00;;;;;12.21;62.45;102156.94;5060398;28;45413;-70
2021/11/05 09:47:02;;;;;;;;;4.75;3.25;;;;;12.16;61.87;102161.47;5050952;28;45430;-70
2021/11/05 09:49:29;;;;;;;;;3.25;3.25;;;;;12.22;62.28;102173.88;5060673;28;45387;-70
2021/11/05 09:51:57;;;;;;;;;4.00;2.25;;;;;12.25;62.43;102172.94;5059791;28;45439;-70
2021/11/05 09:54:23;;;;;;;;;4.75;4.00;;;;;12.27;62.38;102173.78;5059767;28;46356;-70
2021/11/05 09:56:48;;;;;;;;;5.00;4.00;;;;;12.23;62.28;102168.47;5058500;28;45335;-70
2021/11/05 09:59:14;;;;;;;;;3.25;2.00;;;;;12.32;62.58;102178.16;5061958;28;45421;-70
2021/11/05 10:01:41;;;;;;;;;3.75;3.75;;;;;12.30;61.89;102181.78;5061021;28;46488;-70
2021/11/05 10:04:08;;;;;;;;;6.25;4.00;;;;;12.27;62.01;102182.69;5060568;28;46374;-70
2021/11/05 10:06:33;;;;;;;;;2.00;2.00;;;;;12.32;61.97;102196.88;5061046;28;45418;-70
2021/11/05 10:08:59;;;;;;;;;4.00;4.00;;;;;12.32;61.63;102186.19;5060055;28;45222;-70
2021/11/05 10:11:31;;;;;;;;;4.00;4.00;;;;;12.37;61.73;102196.81;5060961;28;45202;-70
2021/11/05 10:14:00;;;;;;;;;4.00;2.00;;;;;12.40;61.79;102204.81;5061264;28;46984;-70
2021/11/05 10:16:27;;;;;;;;;4.00;4.00;;;;;12.44;61.79;102203.84;5060762;28;45426;-70
2021/11/05 10:19:04;;;;;;;;;5.00;3.00;;;;;12.49;61.69;102211.81;5060483;28;45294;-71
2021/11/05 10:21:40;;;;;;;;;4.00;4.00;;;;;12.52;61.67;102214.44;5056225;28;45535;-69
2021/11/05 10:24:12;;;;;;;;;5.00;5.00;;;;;12.54;61.64;102216.16;5057944;28;47143;-70
2021/11/05 10:26:37;;;;;;;;;3.75;2.75;;;;;12.51;61.45;102199.25;5060515;28;45286;-70
2021/11/05 10:29:06;;;;;;;;;3.50;2.00;;;;;12.59;61.45;102216.09;5060589;28;45671;-70
2021/11/05 10:31:33;;;;;;;;;6.00;4.00;;;;;12.63;61.33;102217.81;5060159;28;45318;-70
2021/11/05 10:33:59;;;;;;;;;3.75;3.75;;;;;12.66;61.07;102217.72;5060135;28;46346;-70
2021/11/05 10:36:27;;;;;;;;;4.00;3.00;;;;;12.67;60.94;102219.50;5058933;28;45248;-70
2021/11/05 10:38:59;;;;;;;;;4.00;4.00;;;;;12.67;60.61;102218.66;5053194;28;45473;-70
2021/11/05 10:41:27;;;;;;;;;4.75;3.25;;;;;12.72;61.04;102222.13;5054875;28;45581;-70
2021/11/05 10:43:57;;;;;;;;;3.75;2.75;;;;;12.68;60.56;102221.28;5060396;28;45480;-69
2021/11/05 10:46:24;;;;;;;;;3.00;3.00;;;;;12.69;60.86;102228.41;5050154;28;45454;-71
2021/11/05 10:48:50;;;;;;;;;4.75;4.00;;;;;12.72;61.16;102228.34;5059117;28;45779;-70
2021/11/05 10:51:20;;;;;;;;;5.50;4.75;;;;;12.75;61.13;102220.28;5059694;28;45398;-70
2021/11/05 10:53:46;;;;;;;;;3.50;3.50;;;;;12.76;61.01;102218.47;5046554;28;47198;-70
2021/11/05 10:56:26;;;;;;;;;6.50;5.00;;;;;12.78;61.00;102222.03;5059310;28;45400;-70
2021/11/05 10:58:59;;;;;;;;;3.00;3.00;;;;;12.81;60.45;102221.94;5059643;28;45363;-70
2021/11/05 11:01:29;;;;;;;;;2.50;2.50;;;;;12.82;60.47;102222.84;5059377;28;45581;-66
2021/11/05 11:03:57;;;;;;;;;4.75;2.00;;;;;12.76;59.82;102219.38;5059393;28;46346;-66
2021/11/05 11:06:37;;;;;;;;;4.00;3.00;;;;;12.70;59.98;102230.19;5059953;28;45594;-69
2021/11/05 11:09:11;;;;;;;;;2.00;2.00;;;;;12.68;59.90;102226.66;5060061;28;45327;-68
2021/11/05 11:11:54;;;;;;;;;6.25;3.75;;;;;12.64;60.35;102224.91;5048366;28;45686;-69
2021/11/05 11:14:22;;;;;;;;;4.00;4.00;;;;;12.70;60.28;102223.94;5059910;28;46282;-68
2021/11/05 11:16:56;;;;;;;;;4.50;3.50;;;;;12.71;60.24;102226.59;5059832;28;45290;-72
2021/11/05 11:19:27;;;;;;;;;4.00;4.00;;;;;12.75;59.91;102227.44;5058910;28;45383;-70